Kanto Maru — JD2868 — position and weather

sailwx.info

Track history (hours):
 
Tides and Currents Weather Stations Pressure Air Temp Water Temp Dewpoint Dewpoint Depression Visibility Wind Speed Wind Dir Waves Ship Positions

Kanto Maru

Last reported at 2018-Jun-19 10:01 UTC. Time now 2018-Jun-19 10:18 UTC.
Position N 35°17' E 139°41'.

Length 40 m.

Type: Tug. MMSI: 431000841.

Date/timePositionNaut miles runAvg speedWind from/ knotsBaromVisibWave heightAir tempDewpointWater temp
2018-Jun-19 10:01N 35°17' E 139°41'0 0.0
2018-Jun-19 09:29N 35°17' E 139°41'3 5.4
2018-Jun-19 08:53N 35°20' E 139°42'4 9.5
2018-Jun-19 08:31N 35°17' E 139°45'712.2
2018-Jun-19 07:58N 35°11' E 139°47'4 2.2
2018-Jun-19 06:10N 35°13' E 139°43'3 9.7
2018-Jun-19 05:52N 35°12' E 139°46'511.0
2018-Jun-19 05:27N 35°17' E 139°45'612.8
2018-Jun-19 05:00N 35°22' E 139°42'511.0
2018-Jun-19 04:31N 35°27' E 139°43'0 0.9
2018-Jun-19 04:01N 35°27' E 139°43'3 5.2
2018-Jun-19 03:31N 35°25' E 139°42'510.9
2018-Jun-19 03:00N 35°20' E 139°42'3 5.2
2018-Jun-19 02:30N 35°17' E 139°41'0 0.0
2018-Jun-19 02:00N 35°17' E 139°41'0 0.0
2018-Jun-19 01:30N 35°17' E 139°41'0 0.0
2018-Jun-19 01:00N 35°17' E 139°41'0 0.0
2018-Jun-19 00:26N 35°17' E 139°41'0 0.0
2018-Jun-18 23:51N 35°17' E 139°41'0 0.0
2018-Jun-18 23:29N 35°17' E 139°41'0 0.0
2018-Jun-18 23:00N 35°17' E 139°41'0 0.0
2018-Jun-18 22:30N 35°17' E 139°41'0 0.0
2018-Jun-18 22:00N 35°17' E 139°41'0 0.0
2018-Jun-18 21:30N 35°17' E 139°41'0 0.0
2018-Jun-18 21:00N 35°17' E 139°41'0 0.0
2018-Jun-18 20:31N 35°17' E 139°41'0 0.1
2018-Jun-18 20:01N 35°17' E 139°41'0 0.1
2018-Jun-18 19:30N 35°17' E 139°41'0 0.0
2018-Jun-18 19:01N 35°17' E 139°41'0 0.0
2018-Jun-18 18:29N 35°17' E 139°41'0 0.0
2018-Jun-18 18:00N 35°17' E 139°41'0 0.0
2018-Jun-18 17:30N 35°17' E 139°41'0 0.0
2018-Jun-18 17:00N 35°17' E 139°41'0 0.0
2018-Jun-18 16:30N 35°17' E 139°41'0 0.0
2018-Jun-18 16:01N 35°17' E 139°41'0 0.0
2018-Jun-18 15:30N 35°17' E 139°41'0 0.0
2018-Jun-18 15:00N 35°17' E 139°41'0 0.0
2018-Jun-18 14:30N 35°17' E 139°41'0 0.0
2018-Jun-18 14:01N 35°17' E 139°41'0 0.0
2018-Jun-18 13:31N 35°17' E 139°41'0 0.0
2018-Jun-18 13:00N 35°17' E 139°41'0 0.0
2018-Jun-18 12:30N 35°17' E 139°41'0 0.0
2018-Jun-18 12:00N 35°17' E 139°41'0 0.0
2018-Jun-18 11:31N 35°17' E 139°41'0 0.0
2018-Jun-18 11:01N 35°17' E 139°41'0 0.0
2018-Jun-18 10:30N 35°17' E 139°41'0 0.0
2018-Jun-18 10:01N 35°17' E 139°41'0 0.0
2018-Jun-18 09:30N 35°17' E 139°41'0 0.0
2018-Jun-18 09:00N 35°17' E 139°41'0 0.0
2018-Jun-18 08:31N 35°17' E 139°41'0 0.0
2018-Jun-18 08:01N 35°17' E 139°41'0 0.0
2018-Jun-18 07:31N 35°17' E 139°41'0 0.0
2018-Jun-18 07:00N 35°17' E 139°41'0 0.0
2018-Jun-18 06:30N 35°17' E 139°41'0 0.0
2018-Jun-18 05:59N 35°17' E 139°41'0 0.0
2018-Jun-18 05:30N 35°17' E 139°41'0 0.0
2018-Jun-18 04:59N 35°17' E 139°41'0 0.0
2018-Jun-18 04:23N 35°17' E 139°41'0 0.0
2018-Jun-18 04:01N 35°17' E 139°41'0 0.0
2018-Jun-18 03:31N 35°17' E 139°41'0 0.0
2018-Jun-18 03:00N 35°17' E 139°41'0 0.0
2018-Jun-18 02:30N 35°17' E 139°41'0 0.0
2018-Jun-18 02:00N 35°17' E 139°41'0 0.0
2018-Jun-18 01:31N 35°17' E 139°41'0 0.4
2018-Jun-18 00:58N 35°17' E 139°41'4 9.4
2018-Jun-18 00:31N 35°21' E 139°42'5 9.9
2018-Jun-18 00:00N 35°17' E 139°45'6 9.6
2018-Jun-17 23:25N 35°12' E 139°47'4 3.1
2018-Jun-17 22:11N 35°16' E 139°46'212.2
2018-Jun-17 22:00N 35°17' E 139°45'612.7
2018-Jun-17 21:31N 35°23' E 139°42'5 9.7
2018-Jun-17 21:00N 35°24' E 139°48'3 6.2
2018-Jun-17 20:30N 35°22' E 139°52'3 6.3
2018-Jun-17 20:01N 35°22' E 139°48'612.1
2018-Jun-17 19:30N 35°18' E 139°42'2 3.6
2018-Jun-17 18:59N 35°17' E 139°41'0 0.0
2018-Jun-17 18:30N 35°17' E 139°41'0 0.0
2018-Jun-17 17:59N 35°17' E 139°41'0 0.0
2018-Jun-17 17:29N 35°17' E 139°41'0 0.0
2018-Jun-17 16:59N 35°17' E 139°41'0 0.0
2018-Jun-17 15:59N 35°17' E 139°41'0 0.0
2018-Jun-17 15:30N 35°17' E 139°41'0 0.0
2018-Jun-17 14:58N 35°17' E 139°41'0 0.0
2018-Jun-17 14:22N 35°17' E 139°41'0 0.0
2018-Jun-17 13:56N 35°17' E 139°41'0 0.0
2018-Jun-17 13:15N 35°17' E 139°41'0 0.0
2018-Jun-17 12:48N 35°17' E 139°41'0 0.0
2018-Jun-17 12:23N 35°17' E 139°41'0 0.0
2018-Jun-17 11:46N 35°17' E 139°41'0 0.0
2018-Jun-17 08:25N 35°17' E 139°41'3 6.5
2018-Jun-17 07:59N 35°17' E 139°44'2 2.1
2018-Jun-17 07:14N 35°16' E 139°46'313.0
2018-Jun-17 07:00N 35°18' E 139°44'510.7
2018-Jun-17 06:30N 35°23' E 139°41'0 0.9
2018-Jun-17 06:01N 35°23' E 139°40'3 6.4
2018-Jun-17 05:30N 35°20' E 139°41'5 9.1
2018-Jun-17 04:59N 35°16' E 139°45'1 0.7
2018-Jun-17 04:04N 35°17' E 139°45'112.6
2018-Jun-17 04:00N 35°18' E 139°44'511.1
2018-Jun-17 03:30N 35°22' E 139°41'3 5.1
2018-Jun-17 03:00N 35°24' E 139°39'1 1.0
2018-Jun-17 02:30N 35°24' E 139°39'0 0.1
2018-Jun-17 02:00N 35°24' E 139°39'5 9.7
2018-Jun-17 01:30N 35°19' E 139°41'3 5.0
2018-Jun-17 01:00N 35°17' E 139°41'0 0.0
2018-Jun-17 00:30N 35°17' E 139°41'0 0.0
2018-Jun-17 00:00N 35°17' E 139°41'0 0.0
2018-Jun-16 23:29N 35°17' E 139°41'0 0.0
2018-Jun-16 23:00N 35°17' E 139°41'0 0.0
2018-Jun-16 22:30N 35°17' E 139°41'0 0.0
2018-Jun-16 21:58N 35°17' E 139°41'0 0.0
2018-Jun-16 21:30N 35°17' E 139°41'0 0.0
2018-Jun-16 21:00N 35°17' E 139°41'0 0.0
2018-Jun-16 20:30N 35°17' E 139°41'0 0.0
2018-Jun-16 20:00N 35°17' E 139°41'0 0.0
2018-Jun-16 19:30N 35°17' E 139°41'0 0.0
2018-Jun-16 19:00N 35°17' E 139°41'0 0.0
2018-Jun-16 18:30N 35°17' E 139°41'0 0.0
2018-Jun-16 17:59N 35°17' E 139°41'0 0.0
2018-Jun-16 17:30N 35°17' E 139°41'0 0.0
2018-Jun-16 16:59N 35°17' E 139°41'0 0.0
2018-Jun-16 16:30N 35°17' E 139°41'0 0.0
2018-Jun-16 16:00N 35°17' E 139°41'0 0.0
2018-Jun-16 15:30N 35°17' E 139°41'0 0.0
2018-Jun-16 15:00N 35°17' E 139°41'0 0.0
2018-Jun-16 14:30N 35°17' E 139°41'0 0.0
2018-Jun-16 14:00N 35°17' E 139°41'0 0.0
2018-Jun-16 13:29N 35°17' E 139°41'0 0.0
2018-Jun-16 13:00N 35°17' E 139°41'0 0.0
2018-Jun-16 12:30N 35°17' E 139°41'0 0.0
2018-Jun-16 12:00N 35°17' E 139°41'0 0.0
2018-Jun-16 11:30N 35°17' E 139°41'0 0.0
2018-Jun-16 11:00N 35°17' E 139°41'0 0.0
2018-Jun-16 10:30N 35°17' E 139°41'0 0.0
2018-Jun-16 10:00N 35°17' E 139°41'0 0.0
2018-Jun-16 09:30N 35°17' E 139°41'0 0.0
2018-Jun-16 09:00N 35°17' E 139°41'0 0.0
2018-Jun-16 08:30N 35°17' E 139°41'3 6.3
2018-Jun-16 07:56N 35°16' E 139°45'1 1.0
2018-Jun-16 07:14N 35°16' E 139°45'313.3
2018-Jun-16 07:00N 35°19' E 139°43'5 9.8
2018-Jun-16 06:30N 35°23' E 139°41'0 0.7
2018-Jun-16 06:00N 35°23' E 139°41'3 6.5
2018-Jun-16 05:30N 35°20' E 139°42'3 5.6
2018-Jun-16 05:00N 35°17' E 139°41'0 0.0
2018-Jun-16 04:30N 35°17' E 139°41'0 0.0
2018-Jun-16 03:59N 35°17' E 139°41'2 3.8
2018-Jun-16 03:29N 35°19' E 139°41'511.0
2018-Jun-16 03:01N 35°24' E 139°40'0 0.8
2018-Jun-16 02:30N 35°24' E 139°40'0 0.3
2018-Jun-16 02:00N 35°24' E 139°40'2 3.9
2018-Jun-16 01:31N 35°22' E 139°42'4 8.7
2018-Jun-16 01:00N 35°18' E 139°44'611.0
2018-Jun-16 00:29N 35°13' E 139°47'3 2.6
2018-Jun-15 23:21N 35°16' E 139°45'410.4
2018-Jun-15 23:00N 35°17' E 139°41'0 0.6
2018-Jun-15 22:30N 35°17' E 139°41'0 0.0
2018-Jun-15 22:00N 35°17' E 139°41'0 0.0
2018-Jun-15 21:30N 35°17' E 139°41'0 0.0
2018-Jun-15 21:00N 35°17' E 139°41'0 0.0
2018-Jun-15 20:30N 35°17' E 139°41'0 0.0
2018-Jun-15 20:00N 35°17' E 139°41'0 0.0
2018-Jun-15 19:30N 35°17' E 139°41'0 0.0
2018-Jun-15 19:00N 35°17' E 139°41'0 0.0
2018-Jun-15 18:29N 35°17' E 139°41'0 0.0
2018-Jun-15 17:49N 35°17' E 139°41'0 0.0
2018-Jun-15 17:30N 35°17' E 139°41'0 0.0
2018-Jun-15 16:58N 35°17' E 139°41'0 0.0
2018-Jun-15 16:30N 35°17' E 139°41'0 0.0
2018-Jun-15 16:00N 35°17' E 139°41'0 0.0
2018-Jun-15 15:30N 35°17' E 139°41'0 0.0
2018-Jun-15 14:59N 35°17' E 139°41'0 0.0
2018-Jun-15 14:29N 35°17' E 139°41'0 0.0
2018-Jun-15 14:00N 35°17' E 139°41'0 0.0
2018-Jun-15 13:30N 35°17' E 139°41'0 0.0
2018-Jun-15 12:59N 35°17' E 139°41'0 0.0
2018-Jun-15 12:30N 35°17' E 139°41'0 0.0
2018-Jun-15 12:00N 35°17' E 139°41'0 0.0
2018-Jun-15 11:30N 35°17' E 139°41'0 0.0
2018-Jun-15 11:00N 35°17' E 139°41'0 0.0
2018-Jun-15 10:30N 35°17' E 139°41'0 0.0
2018-Jun-15 09:58N 35°17' E 139°41'0 0.0
2018-Jun-15 09:30N 35°17' E 139°41'0 0.0
2018-Jun-15 09:00N 35°17' E 139°41'0 0.0
2018-Jun-15 08:29N 35°17' E 139°41'0 0.0
2018-Jun-15 08:00N 35°17' E 139°41'0 0.0
2018-Jun-15 07:30N 35°17' E 139°41'1 2.0
2018-Jun-15 07:01N 35°18' E 139°40'0 0.2
2018-Jun-15 06:30N 35°18' E 139°40'0 0.4
2018-Jun-15 06:00N 35°18' E 139°40'0 0.1
2018-Jun-15 05:30N 35°18' E 139°40'1 1.8
2018-Jun-15 05:00N 35°18' E 139°40'4 7.9
2018-Jun-15 04:30N 35°16' E 139°44'3 3.2
2018-Jun-15 03:27N 35°13' E 139°43'2 3.7
2018-Jun-15 02:58N 35°13' E 139°45'3 6.8
2018-Jun-15 02:30N 35°16' E 139°46'510.4
2018-Jun-15 02:00N 35°20' E 139°43'510.1
2018-Jun-15 01:30N 35°25' E 139°43'3 6.6
2018-Jun-15 01:00N 35°28' E 139°45'0 0.3
2018-Jun-15 00:30N 35°28' E 139°44'3 6.6
2018-Jun-15 00:00N 35°25' E 139°43'510.8
2018-Jun-14 23:30N 35°20' E 139°41'3 5.1
2018-Jun-14 23:00N 35°17' E 139°41'0 0.0
2018-Jun-14 22:30N 35°17' E 139°41'0 0.0
2018-Jun-14 22:00N 35°17' E 139°41'0 0.0
2018-Jun-14 21:30N 35°17' E 139°41'0 0.0
2018-Jun-14 21:00N 35°17' E 139°41'0 0.0
2018-Jun-14 20:30N 35°17' E 139°41'0 0.0
2018-Jun-14 20:00N 35°17' E 139°41'0 0.0
2018-Jun-14 19:30N 35°17' E 139°41'0 0.0
2018-Jun-14 19:00N 35°17' E 139°41'0 0.0
2018-Jun-14 18:30N 35°17' E 139°41'0 0.0
2018-Jun-14 18:00N 35°17' E 139°41'0 0.0
2018-Jun-14 17:30N 35°17' E 139°41'0 0.0
2018-Jun-14 17:00N 35°17' E 139°41'0 0.0
2018-Jun-14 16:30N 35°17' E 139°41'0 0.0
2018-Jun-14 16:00N 35°17' E 139°41'0 0.0
2018-Jun-14 15:30N 35°17' E 139°41'0 0.0
2018-Jun-14 15:00N 35°17' E 139°41'0 0.0
2018-Jun-14 14:30N 35°17' E 139°41'0 0.0
2018-Jun-14 14:00N 35°17' E 139°41'0 0.0
2018-Jun-14 13:30N 35°17' E 139°41'0 0.0
2018-Jun-14 13:00N 35°17' E 139°41'0 0.0
2018-Jun-14 12:30N 35°17' E 139°41'0 0.0
2018-Jun-14 12:00N 35°17' E 139°41'0 0.0
2018-Jun-14 11:30N 35°17' E 139°41'0 0.0
2018-Jun-14 11:00N 35°17' E 139°41'0 0.0
2018-Jun-14 10:30N 35°17' E 139°41'0 0.0
2018-Jun-14 10:00N 35°17' E 139°41'0 0.0
2018-Jun-14 09:30N 35°17' E 139°41'0 0.0
2018-Jun-14 09:00N 35°17' E 139°41'0 0.0
2018-Jun-14 08:08N 35°17' E 139°41'0 0.0
2018-Jun-14 07:53N 35°17' E 139°41'0 0.0
2018-Jun-14 07:22N 35°17' E 139°41'2 4.8
2018-Jun-14 07:00N 35°19' E 139°41'1 1.8
2018-Jun-14 06:30N 35°19' E 139°40'0 0.7
2018-Jun-14 05:56N 35°19' E 139°40'0 0.0
2018-Jun-14 05:30N 35°19' E 139°40'0 0.1
2018-Jun-14 05:00N 35°19' E 139°40'2 4.6
2018-Jun-14 04:29N 35°17' E 139°41'0 0.2
2018-Jun-14 04:00N 35°17' E 139°41'0 0.0
2018-Jun-14 03:29N 35°17' E 139°41'3 5.5
2018-Jun-14 03:00N 35°20' E 139°41'611.3
2018-Jun-14 02:30N 35°25' E 139°43'2 4.8
2018-Jun-14 02:00N 35°25' E 139°46'510.5
2018-Jun-14 01:30N 35°20' E 139°44'611.2
2018-Jun-14 01:00N 35°15' E 139°47'2 1.3
2018-Jun-13 23:45N 35°16' E 139°45'313.0
2018-Jun-13 23:30N 35°18' E 139°42'1 2.5
2018-Jun-13 22:59N 35°17' E 139°41'0 0.0
2018-Jun-13 22:30N 35°17' E 139°41'0 0.1
2018-Jun-13 22:00N 35°17' E 139°41'0 0.1
2018-Jun-13 21:24N 35°17' E 139°41'0 0.0
2018-Jun-13 21:00N 35°17' E 139°41'0 0.0
2018-Jun-13 20:30N 35°17' E 139°41'0 0.0
2018-Jun-13 20:00N 35°17' E 139°41'0 0.0
2018-Jun-13 19:30N 35°17' E 139°41'0 0.0
2018-Jun-13 19:00N 35°17' E 139°41'0 0.0
2018-Jun-13 18:30N 35°17' E 139°41'0 0.0
2018-Jun-13 18:00N 35°17' E 139°41'0 0.0
2018-Jun-13 17:30N 35°17' E 139°41'0 0.0
2018-Jun-13 17:00N 35°17' E 139°41'0 0.0
2018-Jun-13 16:30N 35°17' E 139°41'0 0.0
2018-Jun-13 16:00N 35°17' E 139°41'0 0.0
2018-Jun-13 15:30N 35°17' E 139°41'0 0.0
2018-Jun-13 15:00N 35°17' E 139°41'0 0.0
2018-Jun-13 14:30N 35°17' E 139°41'0 0.0
2018-Jun-13 14:00N 35°17' E 139°41'0 0.0
2018-Jun-13 13:30N 35°17' E 139°41'0 0.0
2018-Jun-13 13:00N 35°17' E 139°41'0 0.0
2018-Jun-13 12:22N 35°17' E 139°41'0 0.0
2018-Jun-13 12:00N 35°17' E 139°41'0 0.0
2018-Jun-13 11:30N 35°17' E 139°41'0 0.0
2018-Jun-13 10:59N 35°17' E 139°41'0 0.0
2018-Jun-13 10:30N 35°17' E 139°41'0 0.0
2018-Jun-13 09:51N 35°17' E 139°41'0 0.0
2018-Jun-13 09:23N 35°17' E 139°41'0 0.0
2018-Jun-13 08:59N 35°17' E 139°41'0 0.0
2018-Jun-13 08:30N 35°17' E 139°41'0 0.0
2018-Jun-13 07:43N 35°17' E 139°41'0 0.0
2018-Jun-13 07:25N 35°17' E 139°41'0 0.0
2018-Jun-13 07:00N 35°17' E 139°41'0 0.0
2018-Jun-13 06:30N 35°17' E 139°41'0 0.0
2018-Jun-13 06:00N 35°17' E 139°41'0 0.0
2018-Jun-13 05:30N 35°17' E 139°41'0 0.0
2018-Jun-13 05:00N 35°17' E 139°41'0 0.0
2018-Jun-13 04:29N 35°17' E 139°41'0 0.0
2018-Jun-13 04:00N 35°17' E 139°41'0 0.0
2018-Jun-13 03:30N 35°17' E 139°41'0 0.0
2018-Jun-13 03:00N 35°17' E 139°41'0 0.0
2018-Jun-13 02:30N 35°17' E 139°41'0 0.0
2018-Jun-13 01:59N 35°17' E 139°41'0 0.0
2018-Jun-13 01:30N 35°17' E 139°41'0 0.9
2018-Jun-13 01:00N 35°17' E 139°41'511.1
2018-Jun-13 00:30N 35°23' E 139°42'4 8.1
2018-Jun-13 00:00N 35°26' E 139°45'5 9.4
2018-Jun-12 23:30N 35°28' E 139°50'6 7.8
2018-Jun-12 22:47N 35°31' E 139°56'1 1.0
2018-Jun-12 21:48N 35°30' E 139°55'3 5.1
2018-Jun-12 21:13N 35°28' E 139°52'2 9.6
2018-Jun-12 20:59N 35°27' E 139°50'5 9.9
2018-Jun-12 20:30N 35°24' E 139°46'612.0
2018-Jun-12 20:00N 35°18' E 139°45'612.6
2018-Jun-12 19:30N 35°12' E 139°47'3 3.7
2018-Jun-12 18:49N 35°13' E 139°44'1 0.2
2018-Jun-12 14:03N 35°13' E 139°43'0 3.3
2018-Jun-12 13:59N 35°13' E 139°43'4 5.5
2018-Jun-12 13:21N 35°16' E 139°46'513.2
2018-Jun-12 13:00N 35°20' E 139°43'2 4.9
2018-Jun-12 12:30N 35°22' E 139°43'2 4.1
2018-Jun-12 12:00N 35°24' E 139°44'3 5.0
2018-Jun-12 11:31N 35°22' E 139°42'611.8
2018-Jun-12 11:00N 35°17' E 139°45'712.0
2018-Jun-12 10:24N 35°10' E 139°47'2 4.4
2018-Jun-12 09:54N 35°12' E 139°46'3 0.5
2018-Jun-12 04:35N 35°13' E 139°43'3 7.5
2018-Jun-12 04:13N 35°12' E 139°46'3 8.2
2018-Jun-12 03:48N 35°16' E 139°46'412.6
2018-Jun-12 03:30N 35°19' E 139°43'510.5
2018-Jun-12 03:00N 35°24' E 139°43'4 7.6
2018-Jun-12 02:30N 35°28' E 139°44'0 0.4
2018-Jun-12 02:00N 35°28' E 139°44'4 8.3
2018-Jun-12 01:30N 35°24' E 139°42'611.3
2018-Jun-12 01:00N 35°19' E 139°42'2 2.9
2018-Jun-12 00:21N 35°17' E 139°41'0 0.0
2018-Jun-11 23:59N 35°17' E 139°41'0 0.0
2018-Jun-11 23:30N 35°17' E 139°41'0 0.0
2018-Jun-11 20:48N 35°17' E 139°41'0 0.0
2018-Jun-11 20:26N 35°17' E 139°41'0 0.0
2018-Jun-11 20:00N 35°17' E 139°41'0 0.0
2018-Jun-11 19:27N 35°17' E 139°41'0 0.0
2018-Jun-11 18:58N 35°17' E 139°41'0 0.0
2018-Jun-11 18:30N 35°17' E 139°41'0 0.0
2018-Jun-11 17:50N 35°17' E 139°41'0 0.0
2018-Jun-11 17:29N 35°17' E 139°41'0 0.0
2018-Jun-11 16:16N 35°17' E 139°41'0 0.0
2018-Jun-11 15:59N 35°17' E 139°41'0 0.0
2018-Jun-11 15:29N 35°17' E 139°41'0 0.0
2018-Jun-11 14:55N 35°17' E 139°41'0 0.0
2018-Jun-11 14:28N 35°17' E 139°41'0 0.0
2018-Jun-11 14:00N 35°17' E 139°41'0 0.0
2018-Jun-11 12:51N 35°17' E 139°41'0 0.0
2018-Jun-11 12:23N 35°17' E 139°41'0 0.0
2018-Jun-11 11:50N 35°17' E 139°41'0 0.0
2018-Jun-11 11:26N 35°17' E 139°41'0 0.0
2018-Jun-11 10:11N 35°17' E 139°41'0 0.0
2018-Jun-11 09:57N 35°17' E 139°41'0 0.0
2018-Jun-11 09:15N 35°17' E 139°41'0 0.0
2018-Jun-11 09:00N 35°17' E 139°41'0 0.0
2018-Jun-11 08:19N 35°17' E 139°41'0 0.0
2018-Jun-11 08:00N 35°17' E 139°41'0 0.0
2018-Jun-11 07:28N 35°17' E 139°41'0 0.0
2018-Jun-11 06:58N 35°17' E 139°41'0 0.0
2018-Jun-11 06:18N 35°17' E 139°41'0 0.0
2018-Jun-11 06:00N 35°17' E 139°41'0 0.0
2018-Jun-11 05:30N 35°17' E 139°41'0 0.0
2018-Jun-11 05:00N 35°17' E 139°41'0 0.0
2018-Jun-11 04:30N 35°17' E 139°41'0 0.0
2018-Jun-11 04:00N 35°17' E 139°41'0 0.0
2018-Jun-11 03:29N 35°17' E 139°41'0 0.0
2018-Jun-11 03:00N 35°17' E 139°41'0 0.0
2018-Jun-11 02:27N 35°17' E 139°41'0 0.0
2018-Jun-11 01:51N 35°17' E 139°41'0 0.0
2018-Jun-11 01:29N 35°17' E 139°41'0 0.0
2018-Jun-11 00:59N 35°17' E 139°41'0 0.0
2018-Jun-11 00:28N 35°17' E 139°41'0 0.0
2018-Jun-10 23:45N 35°17' E 139°41'0 0.0
2018-Jun-10 23:29N 35°17' E 139°41'0 0.3
2018-Jun-10 22:53N 35°17' E 139°41'0 0.5
2018-Jun-10 22:28N 35°17' E 139°41'4 8.8
2018-Jun-10 22:00N 35°15' E 139°45'3 5.5
2018-Jun-10 21:30N 35°13' E 139°43'0 0.0
2018-Jun-10 21:00N 35°13' E 139°43'0 0.1
2018-Jun-10 20:19N 35°13' E 139°43'2 8.1
2018-Jun-10 20:00N 35°12' E 139°46'5 9.3
2018-Jun-10 19:31N 35°17' E 139°45'612.5
2018-Jun-10 19:00N 35°22' E 139°41'1 2.4
2018-Jun-10 18:30N 35°23' E 139°40'0 0.4
2018-Jun-10 18:00N 35°23' E 139°40'5 9.9
2018-Jun-10 17:30N 35°18' E 139°42'1 2.6
2018-Jun-10 17:00N 35°17' E 139°41'0 0.0
2018-Jun-10 16:30N 35°17' E 139°41'0 0.0
2018-Jun-10 16:00N 35°17' E 139°41'0 0.0
2018-Jun-10 15:30N 35°17' E 139°41'0 0.0
2018-Jun-10 15:00N 35°17' E 139°41'0 0.0
2018-Jun-10 14:30N 35°17' E 139°41'0 0.0
2018-Jun-10 13:30N 35°17' E 139°41'2 4.5
2018-Jun-10 13:00N 35°17' E 139°43'1 1.4
2018-Jun-10 12:07N 35°17' E 139°45'113.0
2018-Jun-10 12:00N 35°18' E 139°44'612.7
2018-Jun-10 11:30N 35°25' E 139°43'5 9.4
2018-Jun-10 11:00N 35°20' E 139°42'3 1.6
2018-Jun-10 09:10N 35°17' E 139°41'210.5
2018-Jun-10 08:59N 35°17' E 139°43'2 2.0
2018-Jun-10 08:06N 35°17' E 139°45'112.5
2018-Jun-10 08:00N 35°17' E 139°44'612.4
2018-Jun-10 07:30N 35°23' E 139°42'4 7.3
2018-Jun-10 07:00N 35°27' E 139°43'0 1.0
2018-Jun-10 06:31N 35°27' E 139°42'0 0.0
2018-Jun-10 06:00N 35°27' E 139°42'0 0.0
2018-Jun-10 05:30N 35°27' E 139°42'0 0.0
2018-Jun-10 05:00N 35°27' E 139°42'0 0.0
2018-Jun-10 04:30N 35°27' E 139°42'0 0.0
2018-Jun-10 04:00N 35°27' E 139°42'0 0.0
2018-Jun-10 03:30N 35°27' E 139°42'5 9.5
2018-Jun-10 02:58N 35°28' E 139°48'3 6.3
2018-Jun-10 02:25N 35°29' E 139°52'3 8.0
2018-Jun-10 01:59N 35°27' E 139°49'611.7
2018-Jun-10 01:30N 35°22' E 139°45'611.1
2018-Jun-10 01:00N 35°16' E 139°46'610.4
2018-Jun-10 00:26N 35°11' E 139°47'6 6.7
2018-Jun-09 23:35N 35°16' E 139°45'111.9
2018-Jun-09 23:30N 35°17' E 139°44'3 4.6
2018-Jun-09 22:54N 35°17' E 139°41'0 0.0
2018-Jun-09 22:30N 35°17' E 139°41'0 0.0
2018-Jun-09 21:59N 35°17' E 139°41'0 0.0
2018-Jun-09 21:22N 35°17' E 139°41'0 0.0
2018-Jun-09 20:54N 35°17' E 139°41'0 0.0
2018-Jun-09 20:29N 35°17' E 139°41'0 0.0
2018-Jun-09 20:00N 35°17' E 139°41'0 0.0
2018-Jun-09 19:26N 35°17' E 139°41'0 0.0
2018-Jun-09 18:57N 35°17' E 139°41'0 0.0
2018-Jun-09 18:27N 35°17' E 139°41'0 0.0
2018-Jun-09 17:52N 35°17' E 139°41'0 0.0
2018-Jun-09 17:29N 35°17' E 139°41'0 0.0
2018-Jun-09 16:55N 35°17' E 139°41'0 0.0
2018-Jun-09 16:29N 35°17' E 139°41'0 0.0
2018-Jun-09 15:56N 35°17' E 139°41'0 0.0
2018-Jun-09 13:03N 35°17' E 139°41'0 0.0
2018-Jun-09 12:43N 35°17' E 139°41'0 0.0
2018-Jun-09 12:18N 35°17' E 139°41'0 0.0
2018-Jun-09 12:00N 35°17' E 139°41'0 0.0
2018-Jun-09 10:15N 35°17' E 139°41'  
Track history (hours):
 
Tides and Currents Weather Stations Pressure Air Temp Water Temp Dewpoint Dewpoint Depression Visibility Wind Speed Wind Dir Waves Ship Positions

Kanto Maru

Last reported at 2018-Jun-19 10:01 UTC. Time now 2018-Jun-19 10:18 UTC.
Position N 35°17' E 139°41'.

Length 40 m.

Type: Tug. MMSI: 431000841.

Date/timePositionNaut miles runAvg speedWind from/ knotsBaromVisibWave heightAir tempDewpointWater temp
2018-Jun-19 10:01N 35°17' E 139°41'0 0.0
2018-Jun-19 09:29N 35°17' E 139°41'3 5.4
2018-Jun-19 08:53N 35°20' E 139°42'4 9.5
2018-Jun-19 08:31N 35°17' E 139°45'712.2
2018-Jun-19 07:58N 35°11' E 139°47'4 2.2
2018-Jun-19 06:10N 35°13' E 139°43'3 9.7
2018-Jun-19 05:52N 35°12' E 139°46'511.0
2018-Jun-19 05:27N 35°17' E 139°45'612.8
2018-Jun-19 05:00N 35°22' E 139°42'511.0
2018-Jun-19 04:31N 35°27' E 139°43'0 0.9
2018-Jun-19 04:01N 35°27' E 139°43'3 5.2
2018-Jun-19 03:31N 35°25' E 139°42'510.9
2018-Jun-19 03:00N 35°20' E 139°42'3 5.2
2018-Jun-19 02:30N 35°17' E 139°41'0 0.0
2018-Jun-19 02:00N 35°17' E 139°41'0 0.0
2018-Jun-19 01:30N 35°17' E 139°41'0 0.0
2018-Jun-19 01:00N 35°17' E 139°41'0 0.0
2018-Jun-19 00:26N 35°17' E 139°41'0 0.0
2018-Jun-18 23:51N 35°17' E 139°41'0 0.0
2018-Jun-18 23:29N 35°17' E 139°41'0 0.0
2018-Jun-18 23:00N 35°17' E 139°41'0 0.0
2018-Jun-18 22:30N 35°17' E 139°41'0 0.0
2018-Jun-18 22:00N 35°17' E 139°41'0 0.0
2018-Jun-18 21:30N 35°17' E 139°41'0 0.0
2018-Jun-18 21:00N 35°17' E 139°41'0 0.0
2018-Jun-18 20:31N 35°17' E 139°41'0 0.1
2018-Jun-18 20:01N 35°17' E 139°41'0 0.1
2018-Jun-18 19:30N 35°17' E 139°41'0 0.0
2018-Jun-18 19:01N 35°17' E 139°41'0 0.0
2018-Jun-18 18:29N 35°17' E 139°41'0 0.0
2018-Jun-18 18:00N 35°17' E 139°41'0 0.0
2018-Jun-18 17:30N 35°17' E 139°41'0 0.0
2018-Jun-18 17:00N 35°17' E 139°41'0 0.0
2018-Jun-18 16:30N 35°17' E 139°41'0 0.0
2018-Jun-18 16:01N 35°17' E 139°41'0 0.0
2018-Jun-18 15:30N 35°17' E 139°41'0 0.0
2018-Jun-18 15:00N 35°17' E 139°41'0 0.0
2018-Jun-18 14:30N 35°17' E 139°41'0 0.0
2018-Jun-18 14:01N 35°17' E 139°41'0 0.0
2018-Jun-18 13:31N 35°17' E 139°41'0 0.0
2018-Jun-18 13:00N 35°17' E 139°41'0 0.0
2018-Jun-18 12:30N 35°17' E 139°41'0 0.0
2018-Jun-18 12:00N 35°17' E 139°41'0 0.0
2018-Jun-18 11:31N 35°17' E 139°41'0 0.0
2018-Jun-18 11:01N 35°17' E 139°41'0 0.0
2018-Jun-18 10:30N 35°17' E 139°41'0 0.0
2018-Jun-18 10:01N 35°17' E 139°41'0 0.0
2018-Jun-18 09:30N 35°17' E 139°41'0 0.0
2018-Jun-18 09:00N 35°17' E 139°41'0 0.0
2018-Jun-18 08:31N 35°17' E 139°41'0 0.0
2018-Jun-18 08:01N 35°17' E 139°41'0 0.0
2018-Jun-18 07:31N 35°17' E 139°41'0 0.0
2018-Jun-18 07:00N 35°17' E 139°41'0 0.0
2018-Jun-18 06:30N 35°17' E 139°41'0 0.0
2018-Jun-18 05:59N 35°17' E 139°41'0 0.0
2018-Jun-18 05:30N 35°17' E 139°41'0 0.0
2018-Jun-18 04:59N 35°17' E 139°41'0 0.0
2018-Jun-18 04:23N 35°17' E 139°41'0 0.0
2018-Jun-18 04:01N 35°17' E 139°41'0 0.0
2018-Jun-18 03:31N 35°17' E 139°41'0 0.0
2018-Jun-18 03:00N 35°17' E 139°41'0 0.0
2018-Jun-18 02:30N 35°17' E 139°41'0 0.0
2018-Jun-18 02:00N 35°17' E 139°41'0 0.0
2018-Jun-18 01:31N 35°17' E 139°41'0 0.4
2018-Jun-18 00:58N 35°17' E 139°41'4 9.4
2018-Jun-18 00:31N 35°21' E 139°42'5 9.9
2018-Jun-18 00:00N 35°17' E 139°45'6 9.6
2018-Jun-17 23:25N 35°12' E 139°47'4 3.1
2018-Jun-17 22:11N 35°16' E 139°46'212.2
2018-Jun-17 22:00N 35°17' E 139°45'612.7
2018-Jun-17 21:31N 35°23' E 139°42'5 9.7
2018-Jun-17 21:00N 35°24' E 139°48'3 6.2
2018-Jun-17 20:30N 35°22' E 139°52'3 6.3
2018-Jun-17 20:01N 35°22' E 139°48'612.1
2018-Jun-17 19:30N 35°18' E 139°42'2 3.6
2018-Jun-17 18:59N 35°17' E 139°41'0 0.0
2018-Jun-17 18:30N 35°17' E 139°41'0 0.0
2018-Jun-17 17:59N 35°17' E 139°41'0 0.0
2018-Jun-17 17:29N 35°17' E 139°41'0 0.0
2018-Jun-17 16:59N 35°17' E 139°41'0 0.0
2018-Jun-17 15:59N 35°17' E 139°41'0 0.0
2018-Jun-17 15:30N 35°17' E 139°41'0 0.0
2018-Jun-17 14:58N 35°17' E 139°41'0 0.0
2018-Jun-17 14:22N 35°17' E 139°41'0 0.0
2018-Jun-17 13:56N 35°17' E 139°41'0 0.0
2018-Jun-17 13:15N 35°17' E 139°41'0 0.0
2018-Jun-17 12:48N 35°17' E 139°41'0 0.0
2018-Jun-17 12:23N 35°17' E 139°41'0 0.0
2018-Jun-17 11:46N 35°17' E 139°41'0 0.0
2018-Jun-17 08:25N 35°17' E 139°41'3 6.5
2018-Jun-17 07:59N 35°17' E 139°44'2 2.1
2018-Jun-17 07:14N 35°16' E 139°46'313.0
2018-Jun-17 07:00N 35°18' E 139°44'510.7
2018-Jun-17 06:30N 35°23' E 139°41'0 0.9
2018-Jun-17 06:01N 35°23' E 139°40'3 6.4
2018-Jun-17 05:30N 35°20' E 139°41'5 9.1
2018-Jun-17 04:59N 35°16' E 139°45'1 0.7
2018-Jun-17 04:04N 35°17' E 139°45'112.6
2018-Jun-17 04:00N 35°18' E 139°44'511.1
2018-Jun-17 03:30N 35°22' E 139°41'3 5.1
2018-Jun-17 03:00N 35°24' E 139°39'1 1.0
2018-Jun-17 02:30N 35°24' E 139°39'0 0.1
2018-Jun-17 02:00N 35°24' E 139°39'5 9.7
2018-Jun-17 01:30N 35°19' E 139°41'3 5.0
2018-Jun-17 01:00N 35°17' E 139°41'0 0.0
2018-Jun-17 00:30N 35°17' E 139°41'0 0.0
2018-Jun-17 00:00N 35°17' E 139°41'0 0.0
2018-Jun-16 23:29N 35°17' E 139°41'0 0.0
2018-Jun-16 23:00N 35°17' E 139°41'0 0.0
2018-Jun-16 22:30N 35°17' E 139°41'0 0.0
2018-Jun-16 21:58N 35°17' E 139°41'0 0.0
2018-Jun-16 21:30N 35°17' E 139°41'0 0.0
2018-Jun-16 21:00N 35°17' E 139°41'0 0.0
2018-Jun-16 20:30N 35°17' E 139°41'0 0.0
2018-Jun-16 20:00N 35°17' E 139°41'0 0.0
2018-Jun-16 19:30N 35°17' E 139°41'0 0.0
2018-Jun-16 19:00N 35°17' E 139°41'0 0.0
2018-Jun-16 18:30N 35°17' E 139°41'0 0.0
2018-Jun-16 17:59N 35°17' E 139°41'0 0.0
2018-Jun-16 17:30N 35°17' E 139°41'0 0.0
2018-Jun-16 16:59N 35°17' E 139°41'0 0.0
2018-Jun-16 16:30N 35°17' E 139°41'0 0.0
2018-Jun-16 16:00N 35°17' E 139°41'0 0.0
2018-Jun-16 15:30N 35°17' E 139°41'0 0.0
2018-Jun-16 15:00N 35°17' E 139°41'0 0.0
2018-Jun-16 14:30N 35°17' E 139°41'0 0.0
2018-Jun-16 14:00N 35°17' E 139°41'0 0.0
2018-Jun-16 13:29N 35°17' E 139°41'0 0.0
2018-Jun-16 13:00N 35°17' E 139°41'0 0.0
2018-Jun-16 12:30N 35°17' E 139°41'0 0.0
2018-Jun-16 12:00N 35°17' E 139°41'0 0.0
2018-Jun-16 11:30N 35°17' E 139°41'0 0.0
2018-Jun-16 11:00N 35°17' E 139°41'0 0.0
2018-Jun-16 10:30N 35°17' E 139°41'0 0.0
2018-Jun-16 10:00N 35°17' E 139°41'0 0.0
2018-Jun-16 09:30N 35°17' E 139°41'0 0.0
2018-Jun-16 09:00N 35°17' E 139°41'0 0.0
2018-Jun-16 08:30N 35°17' E 139°41'3 6.3
2018-Jun-16 07:56N 35°16' E 139°45'1 1.0
2018-Jun-16 07:14N 35°16' E 139°45'313.3
2018-Jun-16 07:00N 35°19' E 139°43'5 9.8
2018-Jun-16 06:30N 35°23' E 139°41'0 0.7
2018-Jun-16 06:00N 35°23' E 139°41'3 6.5
2018-Jun-16 05:30N 35°20' E 139°42'3 5.6
2018-Jun-16 05:00N 35°17' E 139°41'0 0.0
2018-Jun-16 04:30N 35°17' E 139°41'0 0.0
2018-Jun-16 03:59N 35°17' E 139°41'2 3.8
2018-Jun-16 03:29N 35°19' E 139°41'511.0
2018-Jun-16 03:01N 35°24' E 139°40'0 0.8
2018-Jun-16 02:30N 35°24' E 139°40'0 0.3
2018-Jun-16 02:00N 35°24' E 139°40'2 3.9
2018-Jun-16 01:31N 35°22' E 139°42'4 8.7
2018-Jun-16 01:00N 35°18' E 139°44'611.0
2018-Jun-16 00:29N 35°13' E 139°47'3 2.6
2018-Jun-15 23:21N 35°16' E 139°45'410.4
2018-Jun-15 23:00N 35°17' E 139°41'0 0.6
2018-Jun-15 22:30N 35°17' E 139°41'0 0.0
2018-Jun-15 22:00N 35°17' E 139°41'0 0.0
2018-Jun-15 21:30N 35°17' E 139°41'0 0.0
2018-Jun-15 21:00N 35°17' E 139°41'0 0.0
2018-Jun-15 20:30N 35°17' E 139°41'0 0.0
2018-Jun-15 20:00N 35°17' E 139°41'0 0.0
2018-Jun-15 19:30N 35°17' E 139°41'0 0.0
2018-Jun-15 19:00N 35°17' E 139°41'0 0.0
2018-Jun-15 18:29N 35°17' E 139°41'0 0.0
2018-Jun-15 17:49N 35°17' E 139°41'0 0.0
2018-Jun-15 17:30N 35°17' E 139°41'0 0.0
2018-Jun-15 16:58N 35°17' E 139°41'0 0.0
2018-Jun-15 16:30N 35°17' E 139°41'0 0.0
2018-Jun-15 16:00N 35°17' E 139°41'0 0.0
2018-Jun-15 15:30N 35°17' E 139°41'0 0.0
2018-Jun-15 14:59N 35°17' E 139°41'0 0.0
2018-Jun-15 14:29N 35°17' E 139°41'0 0.0
2018-Jun-15 14:00N 35°17' E 139°41'0 0.0
2018-Jun-15 13:30N 35°17' E 139°41'0 0.0
2018-Jun-15 12:59N 35°17' E 139°41'0 0.0
2018-Jun-15 12:30N 35°17' E 139°41'0 0.0
2018-Jun-15 12:00N 35°17' E 139°41'0 0.0
2018-Jun-15 11:30N 35°17' E 139°41'0 0.0
2018-Jun-15 11:00N 35°17' E 139°41'0 0.0
2018-Jun-15 10:30N 35°17' E 139°41'0 0.0
2018-Jun-15 09:58N 35°17' E 139°41'0 0.0
2018-Jun-15 09:30N 35°17' E 139°41'0 0.0
2018-Jun-15 09:00N 35°17' E 139°41'0 0.0
2018-Jun-15 08:29N 35°17' E 139°41'0 0.0
2018-Jun-15 08:00N 35°17' E 139°41'0 0.0
2018-Jun-15 07:30N 35°17' E 139°41'1 2.0
2018-Jun-15 07:01N 35°18' E 139°40'0 0.2
2018-Jun-15 06:30N 35°18' E 139°40'0 0.4
2018-Jun-15 06:00N 35°18' E 139°40'0 0.1
2018-Jun-15 05:30N 35°18' E 139°40'1 1.8
2018-Jun-15 05:00N 35°18' E 139°40'4 7.9
2018-Jun-15 04:30N 35°16' E 139°44'3 3.2
2018-Jun-15 03:27N 35°13' E 139°43'2 3.7
2018-Jun-15 02:58N 35°13' E 139°45'3 6.8
2018-Jun-15 02:30N 35°16' E 139°46'510.4
2018-Jun-15 02:00N 35°20' E 139°43'510.1
2018-Jun-15 01:30N 35°25' E 139°43'3 6.6
2018-Jun-15 01:00N 35°28' E 139°45'0 0.3
2018-Jun-15 00:30N 35°28' E 139°44'3 6.6
2018-Jun-15 00:00N 35°25' E 139°43'510.8
2018-Jun-14 23:30N 35°20' E 139°41'3 5.1
2018-Jun-14 23:00N 35°17' E 139°41'0 0.0
2018-Jun-14 22:30N 35°17' E 139°41'0 0.0
2018-Jun-14 22:00N 35°17' E 139°41'0 0.0
2018-Jun-14 21:30N 35°17' E 139°41'0 0.0
2018-Jun-14 21:00N 35°17' E 139°41'0 0.0
2018-Jun-14 20:30N 35°17' E 139°41'0 0.0
2018-Jun-14 20:00N 35°17' E 139°41'0 0.0
2018-Jun-14 19:30N 35°17' E 139°41'0 0.0
2018-Jun-14 19:00N 35°17' E 139°41'0 0.0
2018-Jun-14 18:30N 35°17' E 139°41'0 0.0
2018-Jun-14 18:00N 35°17' E 139°41'0 0.0
2018-Jun-14 17:30N 35°17' E 139°41'0 0.0
2018-Jun-14 17:00N 35°17' E 139°41'0 0.0
2018-Jun-14 16:30N 35°17' E 139°41'0 0.0
2018-Jun-14 16:00N 35°17' E 139°41'0 0.0
2018-Jun-14 15:30N 35°17' E 139°41'0 0.0
2018-Jun-14 15:00N 35°17' E 139°41'0 0.0
2018-Jun-14 14:30N 35°17' E 139°41'0 0.0
2018-Jun-14 14:00N 35°17' E 139°41'0 0.0
2018-Jun-14 13:30N 35°17' E 139°41'0 0.0
2018-Jun-14 13:00N 35°17' E 139°41'0 0.0
2018-Jun-14 12:30N 35°17' E 139°41'0 0.0
2018-Jun-14 12:00N 35°17' E 139°41'0 0.0
2018-Jun-14 11:30N 35°17' E 139°41'0 0.0
2018-Jun-14 11:00N 35°17' E 139°41'0 0.0
2018-Jun-14 10:30N 35°17' E 139°41'0 0.0
2018-Jun-14 10:00N 35°17' E 139°41'0 0.0
2018-Jun-14 09:30N 35°17' E 139°41'0 0.0
2018-Jun-14 09:00N 35°17' E 139°41'0 0.0
2018-Jun-14 08:08N 35°17' E 139°41'0 0.0
2018-Jun-14 07:53N 35°17' E 139°41'0 0.0
2018-Jun-14 07:22N 35°17' E 139°41'2 4.8
2018-Jun-14 07:00N 35°19' E 139°41'1 1.8
2018-Jun-14 06:30N 35°19' E 139°40'0 0.7
2018-Jun-14 05:56N 35°19' E 139°40'0 0.0
2018-Jun-14 05:30N 35°19' E 139°40'0 0.1
2018-Jun-14 05:00N 35°19' E 139°40'2 4.6
2018-Jun-14 04:29N 35°17' E 139°41'0 0.2
2018-Jun-14 04:00N 35°17' E 139°41'0 0.0
2018-Jun-14 03:29N 35°17' E 139°41'3 5.5
2018-Jun-14 03:00N 35°20' E 139°41'611.3
2018-Jun-14 02:30N 35°25' E 139°43'2 4.8
2018-Jun-14 02:00N 35°25' E 139°46'510.5
2018-Jun-14 01:30N 35°20' E 139°44'611.2
2018-Jun-14 01:00N 35°15' E 139°47'2 1.3
2018-Jun-13 23:45N 35°16' E 139°45'313.0
2018-Jun-13 23:30N 35°18' E 139°42'1 2.5
2018-Jun-13 22:59N 35°17' E 139°41'0 0.0
2018-Jun-13 22:30N 35°17' E 139°41'0 0.1
2018-Jun-13 22:00N 35°17' E 139°41'0 0.1
2018-Jun-13 21:24N 35°17' E 139°41'0 0.0
2018-Jun-13 21:00N 35°17' E 139°41'0 0.0
2018-Jun-13 20:30N 35°17' E 139°41'0 0.0
2018-Jun-13 20:00N 35°17' E 139°41'0 0.0
2018-Jun-13 19:30N 35°17' E 139°41'0 0.0
2018-Jun-13 19:00N 35°17' E 139°41'0 0.0
2018-Jun-13 18:30N 35°17' E 139°41'0 0.0
2018-Jun-13 18:00N 35°17' E 139°41'0 0.0
2018-Jun-13 17:30N 35°17' E 139°41'0 0.0
2018-Jun-13 17:00N 35°17' E 139°41'0 0.0
2018-Jun-13 16:30N 35°17' E 139°41'0 0.0
2018-Jun-13 16:00N 35°17' E 139°41'0 0.0
2018-Jun-13 15:30N 35°17' E 139°41'0 0.0
2018-Jun-13 15:00N 35°17' E 139°41'0 0.0
2018-Jun-13 14:30N 35°17' E 139°41'0 0.0
2018-Jun-13 14:00N 35°17' E 139°41'0 0.0
2018-Jun-13 13:30N 35°17' E 139°41'0 0.0
2018-Jun-13 13:00N 35°17' E 139°41'0 0.0
2018-Jun-13 12:22N 35°17' E 139°41'0 0.0
2018-Jun-13 12:00N 35°17' E 139°41'0 0.0
2018-Jun-13 11:30N 35°17' E 139°41'0 0.0
2018-Jun-13 10:59N 35°17' E 139°41'0 0.0
2018-Jun-13 10:30N 35°17' E 139°41'0 0.0
2018-Jun-13 09:51N 35°17' E 139°41'0 0.0
2018-Jun-13 09:23N 35°17' E 139°41'0 0.0
2018-Jun-13 08:59N 35°17' E 139°41'0 0.0
2018-Jun-13 08:30N 35°17' E 139°41'0 0.0
2018-Jun-13 07:43N 35°17' E 139°41'0 0.0
2018-Jun-13 07:25N 35°17' E 139°41'0 0.0
2018-Jun-13 07:00N 35°17' E 139°41'0 0.0
2018-Jun-13 06:30N 35°17' E 139°41'0 0.0
2018-Jun-13 06:00N 35°17' E 139°41'0 0.0
2018-Jun-13 05:30N 35°17' E 139°41'0 0.0
2018-Jun-13 05:00N 35°17' E 139°41'0 0.0
2018-Jun-13 04:29N 35°17' E 139°41'0 0.0
2018-Jun-13 04:00N 35°17' E 139°41'0 0.0
2018-Jun-13 03:30N 35°17' E 139°41'0 0.0
2018-Jun-13 03:00N 35°17' E 139°41'0 0.0
2018-Jun-13 02:30N 35°17' E 139°41'0 0.0
2018-Jun-13 01:59N 35°17' E 139°41'0 0.0
2018-Jun-13 01:30N 35°17' E 139°41'0 0.9
2018-Jun-13 01:00N 35°17' E 139°41'511.1
2018-Jun-13 00:30N 35°23' E 139°42'4 8.1
2018-Jun-13 00:00N 35°26' E 139°45'5 9.4
2018-Jun-12 23:30N 35°28' E 139°50'6 7.8
2018-Jun-12 22:47N 35°31' E 139°56'1 1.0
2018-Jun-12 21:48N 35°30' E 139°55'3 5.1
2018-Jun-12 21:13N 35°28' E 139°52'2 9.6
2018-Jun-12 20:59N 35°27' E 139°50'5 9.9
2018-Jun-12 20:30N 35°24' E 139°46'612.0
2018-Jun-12 20:00N 35°18' E 139°45'612.6
2018-Jun-12 19:30N 35°12' E 139°47'3 3.7
2018-Jun-12 18:49N 35°13' E 139°44'1 0.2
2018-Jun-12 14:03N 35°13' E 139°43'0 3.3
2018-Jun-12 13:59N 35°13' E 139°43'4 5.5
2018-Jun-12 13:21N 35°16' E 139°46'513.2
2018-Jun-12 13:00N 35°20' E 139°43'2 4.9
2018-Jun-12 12:30N 35°22' E 139°43'2 4.1
2018-Jun-12 12:00N 35°24' E 139°44'3 5.0
2018-Jun-12 11:31N 35°22' E 139°42'611.8
2018-Jun-12 11:00N 35°17' E 139°45'712.0
2018-Jun-12 10:24N 35°10' E 139°47'2 4.4
2018-Jun-12 09:54N 35°12' E 139°46'3 0.5
2018-Jun-12 04:35N 35°13' E 139°43'3 7.5
2018-Jun-12 04:13N 35°12' E 139°46'3 8.2
2018-Jun-12 03:48N 35°16' E 139°46'412.6
2018-Jun-12 03:30N 35°19' E 139°43'510.5
2018-Jun-12 03:00N 35°24' E 139°43'4 7.6
2018-Jun-12 02:30N 35°28' E 139°44'0 0.4
2018-Jun-12 02:00N 35°28' E 139°44'4 8.3
2018-Jun-12 01:30N 35°24' E 139°42'611.3
2018-Jun-12 01:00N 35°19' E 139°42'2 2.9
2018-Jun-12 00:21N 35°17' E 139°41'0 0.0
2018-Jun-11 23:59N 35°17' E 139°41'0 0.0
2018-Jun-11 23:30N 35°17' E 139°41'0 0.0
2018-Jun-11 20:48N 35°17' E 139°41'0 0.0
2018-Jun-11 20:26N 35°17' E 139°41'0 0.0
2018-Jun-11 20:00N 35°17' E 139°41'0 0.0
2018-Jun-11 19:27N 35°17' E 139°41'0 0.0
2018-Jun-11 18:58N 35°17' E 139°41'0 0.0
2018-Jun-11 18:30N 35°17' E 139°41'0 0.0
2018-Jun-11 17:50N 35°17' E 139°41'0 0.0
2018-Jun-11 17:29N 35°17' E 139°41'0 0.0
2018-Jun-11 16:16N 35°17' E 139°41'0 0.0
2018-Jun-11 15:59N 35°17' E 139°41'0 0.0
2018-Jun-11 15:29N 35°17' E 139°41'0 0.0
2018-Jun-11 14:55N 35°17' E 139°41'0 0.0
2018-Jun-11 14:28N 35°17' E 139°41'0 0.0
2018-Jun-11 14:00N 35°17' E 139°41'0 0.0
2018-Jun-11 12:51N 35°17' E 139°41'0 0.0
2018-Jun-11 12:23N 35°17' E 139°41'0 0.0
2018-Jun-11 11:50N 35°17' E 139°41'0 0.0
2018-Jun-11 11:26N 35°17' E 139°41'0 0.0
2018-Jun-11 10:11N 35°17' E 139°41'0 0.0
2018-Jun-11 09:57N 35°17' E 139°41'0 0.0
2018-Jun-11 09:15N 35°17' E 139°41'0 0.0
2018-Jun-11 09:00N 35°17' E 139°41'0 0.0
2018-Jun-11 08:19N 35°17' E 139°41'0 0.0
2018-Jun-11 08:00N 35°17' E 139°41'0 0.0
2018-Jun-11 07:28N 35°17' E 139°41'0 0.0
2018-Jun-11 06:58N 35°17' E 139°41'0 0.0
2018-Jun-11 06:18N 35°17' E 139°41'0 0.0
2018-Jun-11 06:00N 35°17' E 139°41'0 0.0
2018-Jun-11 05:30N 35°17' E 139°41'0 0.0
2018-Jun-11 05:00N 35°17' E 139°41'0 0.0
2018-Jun-11 04:30N 35°17' E 139°41'0 0.0
2018-Jun-11 04:00N 35°17' E 139°41'0 0.0
2018-Jun-11 03:29N 35°17' E 139°41'0 0.0
2018-Jun-11 03:00N 35°17' E 139°41'0 0.0
2018-Jun-11 02:27N 35°17' E 139°41'0 0.0
2018-Jun-11 01:51N 35°17' E 139°41'0 0.0
2018-Jun-11 01:29N 35°17' E 139°41'0 0.0
2018-Jun-11 00:59N 35°17' E 139°41'0 0.0
2018-Jun-11 00:28N 35°17' E 139°41'0 0.0
2018-Jun-10 23:45N 35°17' E 139°41'0 0.0
2018-Jun-10 23:29N 35°17' E 139°41'0 0.3
2018-Jun-10 22:53N 35°17' E 139°41'0 0.5
2018-Jun-10 22:28N 35°17' E 139°41'4 8.8
2018-Jun-10 22:00N 35°15' E 139°45'3 5.5
2018-Jun-10 21:30N 35°13' E 139°43'0 0.0
2018-Jun-10 21:00N 35°13' E 139°43'0 0.1
2018-Jun-10 20:19N 35°13' E 139°43'2 8.1
2018-Jun-10 20:00N 35°12' E 139°46'5 9.3
2018-Jun-10 19:31N 35°17' E 139°45'612.5
2018-Jun-10 19:00N 35°22' E 139°41'1 2.4
2018-Jun-10 18:30N 35°23' E 139°40'0 0.4
2018-Jun-10 18:00N 35°23' E 139°40'5 9.9
2018-Jun-10 17:30N 35°18' E 139°42'1 2.6
2018-Jun-10 17:00N 35°17' E 139°41'0 0.0
2018-Jun-10 16:30N 35°17' E 139°41'0 0.0
2018-Jun-10 16:00N 35°17' E 139°41'0 0.0
2018-Jun-10 15:30N 35°17' E 139°41'0 0.0
2018-Jun-10 15:00N 35°17' E 139°41'0 0.0
2018-Jun-10 14:30N 35°17' E 139°41'0 0.0
2018-Jun-10 13:30N 35°17' E 139°41'2 4.5
2018-Jun-10 13:00N 35°17' E 139°43'1 1.4
2018-Jun-10 12:07N 35°17' E 139°45'113.0
2018-Jun-10 12:00N 35°18' E 139°44'612.7
2018-Jun-10 11:30N 35°25' E 139°43'5 9.4
2018-Jun-10 11:00N 35°20' E 139°42'3 1.6
2018-Jun-10 09:10N 35°17' E 139°41'210.5
2018-Jun-10 08:59N 35°17' E 139°43'2 2.0
2018-Jun-10 08:06N 35°17' E 139°45'112.5
2018-Jun-10 08:00N 35°17' E 139°44'612.4
2018-Jun-10 07:30N 35°23' E 139°42'4 7.3
2018-Jun-10 07:00N 35°27' E 139°43'0 1.0
2018-Jun-10 06:31N 35°27' E 139°42'0 0.0
2018-Jun-10 06:00N 35°27' E 139°42'0 0.0
2018-Jun-10 05:30N 35°27' E 139°42'0 0.0
2018-Jun-10 05:00N 35°27' E 139°42'0 0.0
2018-Jun-10 04:30N 35°27' E 139°42'0 0.0
2018-Jun-10 04:00N 35°27' E 139°42'0 0.0
2018-Jun-10 03:30N 35°27' E 139°42'5 9.5
2018-Jun-10 02:58N 35°28' E 139°48'3 6.3
2018-Jun-10 02:25N 35°29' E 139°52'3 8.0
2018-Jun-10 01:59N 35°27' E 139°49'611.7
2018-Jun-10 01:30N 35°22' E 139°45'611.1
2018-Jun-10 01:00N 35°16' E 139°46'610.4
2018-Jun-10 00:26N 35°11' E 139°47'6 6.7
2018-Jun-09 23:35N 35°16' E 139°45'111.9
2018-Jun-09 23:30N 35°17' E 139°44'3 4.6
2018-Jun-09 22:54N 35°17' E 139°41'0 0.0
2018-Jun-09 22:30N 35°17' E 139°41'0 0.0
2018-Jun-09 21:59N 35°17' E 139°41'0 0.0
2018-Jun-09 21:22N 35°17' E 139°41'0 0.0
2018-Jun-09 20:54N 35°17' E 139°41'0 0.0
2018-Jun-09 20:29N 35°17' E 139°41'0 0.0
2018-Jun-09 20:00N 35°17' E 139°41'0 0.0
2018-Jun-09 19:26N 35°17' E 139°41'0 0.0
2018-Jun-09 18:57N 35°17' E 139°41'0 0.0
2018-Jun-09 18:27N 35°17' E 139°41'0 0.0
2018-Jun-09 17:52N 35°17' E 139°41'0 0.0
2018-Jun-09 17:29N 35°17' E 139°41'0 0.0
2018-Jun-09 16:55N 35°17' E 139°41'0 0.0
2018-Jun-09 16:29N 35°17' E 139°41'0 0.0
2018-Jun-09 15:56N 35°17' E 139°41'0 0.0
2018-Jun-09 13:03N 35°17' E 139°41'0 0.0
2018-Jun-09 12:43N 35°17' E 139°41'0 0.0
2018-Jun-09 12:18N 35°17' E 139°41'0 0.0
2018-Jun-09 12:00N 35°17' E 139°41'0 0.0
2018-Jun-09 10:15N 35°17' E 139°41'  

Dump ship's entire track history